Whidbey Island Naval Air Station /Ault Field/ Airport
KNUW : now visible

Airfield :











YOU CAN JOIN US ON...

 
LOGIN :

Register | Disclaimer

   EN    FR    IT 

 









Legend :    VFR   Marginal VFR   IFR   Intensive IFR   Very Intensive IFR
Visi :
Ceiling :
>= 8 km
>= 3000ft
5 to 8 km
1000 to 3000 ft
1500m to 5 km
500 to 1000 ft
800 to 1500m
200 to 500 ft
< 800m
< 200 ft
Symbols :   Thunderstorms  Fog  Heavy snow  Heavy precipitations  Wind > 20 kt






- Airport Elevation : 47 ft


KNUW - Whidbey Island Naval Air Station /Ault Field/

CURRENT METAR :
  • 271556Z 14021G28KT 10SM FEW018 FEW060 BKN150 BKN250 09/03 A3028 RMK AO2 PK WND 14028/1551 SLP251 T00890033

EXPIRED METARs :
  • 271456Z 14020G26KT 10SM FEW015 FEW060 SCT160 BKN250 09/03 A3029 RMK AO2 PK WND 14029/1421 SLP255 T00890033 58009
  • 271356Z 13018KT 10SM FEW025 FEW060 SCT160 BKN250 09/03 A3030 RMK AO2 SLP258 T00890033

Expired Forecast.
KZSE FIR / North America



MET'MAP, your aeronautical weather chart ! - Copyright ORBIFLY December 2007 - Disclaimer

ORBIFLY MET'MAP TEAM :

Programming & Development : Alexandra Zaïnal
Concept & original design : Baudouin d'Aumeries
Assistance for programming : Marc-Olivier Méhu
Technical & hardware support : Manuel Goepfert

Contact : metmap@orbifly.com




SOURCES & CREDITS :

   NOAA       Earth
Advisory